Time;durP1;ratioP1;P1;durP2;ratioP2;P2;SDS_P1;SDS_P2;PMS_P1;PMS_P2;Temp;Humidity;BMP_temperature;BMP_pressure;BME280_temperature;BME280_humidity;BME280_pressure;Samples;Min_cycle;Max_cycle;Signal;HPM_P1;HPM_P2
2021/10/20 10:11:00;;;;;;;4.10;3.78;;;31.30;39.80;;;;;;1080964;54;20376;-73
2021/10/20 10:12:43;;;;;;;3.28;2.97;;;22.20;59.60;;;;;;1083922;47;20027;-73
2021/10/20 10:14:29;;;;;;;3.50;3.20;;;21.80;59.40;;;;;;1082602;47;20042;-73
2021/10/20 10:16:11;;;;;;;3.47;3.15;;;21.80;59.20;;;;;;1082371;47;20038;-73
2021/10/20 10:17:55;;;;;;;4.43;3.67;;;21.90;59.10;;;;;;1082902;47;20039;-74
2021/10/20 10:19:40;;;;;;;5.57;3.67;;;21.90;58.80;;;;;;1081999;46;20508;-73
2021/10/20 10:21:47;;;;;;;3.40;3.10;;;21.90;58.50;;;;;;1082992;39;20456;-75
2021/10/20 10:23:30;;;;;;;3.60;3.30;;;21.80;58.60;;;;;;1081991;46;20049;-72
2021/10/20 10:25:12;;;;;;;3.53;3.20;;;21.80;58.50;;;;;;1082947;39;20449;-74
2021/10/20 10:27:08;;;;;;;4.88;3.33;;;21.80;58.60;;;;;;1082644;46;20444;-74
2021/10/20 10:29:18;;;;;;;4.18;3.67;;;21.80;58.70;;;;;;1082687;46;20138;-75
2021/10/20 10:31:07;;;;;;;4.10;3.70;;;21.70;58.60;;;;;;1082756;46;20130;-76
2021/10/20 10:32:57;;;;;;;3.53;3.17;;;21.80;58.70;;;;;;1082286;46;20034;-74
2021/10/20 10:34:47;;;;;;;3.67;3.30;;;21.70;58.80;;;;;;1082136;46;20053;-72
2021/10/20 10:36:30;;;;;;;3.55;3.25;;;21.60;58.80;;;;;;1082443;46;20050;-75
2021/10/20 10:38:11;;;;;;;4.30;3.90;;;21.70;58.90;;;;;;1082204;46;20082;-72
2021/10/20 10:39:53;;;;;;;4.32;3.75;;;21.60;59.00;;;;;;1082380;46;20126;-76
2021/10/20 10:41:40;;;;;;;5.45;3.92;;;21.60;59.10;;;;;;1082365;46;20041;-76
2021/10/20 10:43:22;;;;;;;4.45;3.78;;;21.60;59.10;;;;;;1082470;46;20122;-72
2021/10/20 10:45:14;;;;;;;4.50;3.97;;;21.60;59.20;;;;;;1083419;39;20453;-72
2021/10/20 10:47:07;;;;;;;4.70;3.95;;;21.50;59.30;;;;;;1083202;31;20442;-75
2021/10/20 10:48:51;;;;;;;6.10;4.35;;;21.50;59.20;;;;;;1082692;46;20099;-74
2021/10/20 10:50:43;;;;;;;5.85;3.90;;;21.60;59.20;;;;;;1083522;46;20102;-73
2021/10/20 10:52:27;;;;;;;3.65;3.33;;;21.50;59.30;;;;;;1081326;47;20038;-74
2021/10/20 10:54:10;;;;;;;4.47;3.95;;;21.50;59.40;;;;;;1083682;46;20038;-74
2021/10/20 10:56:21;;;;;;;5.25;3.83;;;21.60;59.50;;;;;;1082174;46;20041;-73
2021/10/20 10:58:17;;;;;;;4.57;3.80;;;21.50;59.50;;;;;;1081823;46;20038;-73
2021/10/20 11:00:20;;;;;;;7.53;4.20;;;21.50;59.60;;;;;;1082846;46;20046;-73
2021/10/20 11:02:01;;;;;;;5.13;3.90;;;21.40;59.60;;;;;;1082819;46;20030;-74
2021/10/20 11:04:14;;;;;;;4.30;3.90;;;21.50;59.60;;;;;;1082355;47;20908;-76
2021/10/20 11:06:00;;;;;;;4.53;3.67;;;21.40;59.70;;;;;;1082432;46;20039;-73
2021/10/20 11:07:47;;;;;;;3.80;3.50;;;21.40;59.70;;;;;;1082019;47;20756;-71
2021/10/20 11:09:31;;;;;;;5.05;4.03;;;21.40;59.90;;;;;;1081938;46;20034;-71
2021/10/20 11:11:13;;;;;;;4.85;4.35;;;21.40;59.90;;;;;;1081671;46;20039;-72
2021/10/20 11:12:57;;;;;;;3.70;3.40;;;21.40;59.90;;;;;;1081788;39;20300;-72
2021/10/20 11:14:41;;;;;;;5.15;4.03;;;21.40;59.90;;;;;;1081798;46;20038;-71
2021/10/20 11:16:22;;;;;;;4.45;3.97;;;21.40;60.20;;;;;;1081603;46;20489;-72
2021/10/20 11:18:04;;;;;;;6.57;4.30;;;21.40;60.20;;;;;;1082180;46;20090;-70
2021/10/20 11:19:46;;;;;;;6.53;4.07;;;21.40;60.00;;;;;;1082126;46;20035;-69
2021/10/20 11:21:27;;;;;;;4.57;3.97;;;21.30;59.90;;;;;;1082369;47;20042;-71
2021/10/20 11:23:12;;;;;;;3.70;3.40;;;21.30;59.90;;;;;;1082095;46;20082;-74
2021/10/20 11:24:53;;;;;;;4.28;3.70;;;21.30;60.10;;;;;;1083958;39;20465;-71
2021/10/20 11:26:37;;;;;;;4.25;3.83;;;21.30;60.20;;;;;;1082357;46;20046;-72
2021/10/20 11:28:18;;;;;;;5.22;4.47;;;21.30;60.30;;;;;;1082276;47;20548;-69
2021/10/20 11:30:00;;;;;;;4.53;4.13;;;21.30;60.40;;;;;;1082871;46;20050;-72
2021/10/20 11:31:54;;;;;;;5.85;3.90;;;21.30;60.60;;;;;;1082690;39;20381;-73
2021/10/20 11:33:35;;;;;;;5.28;3.90;;;21.20;60.70;;;;;;1082169;46;20046;-71
2021/10/20 11:35:19;;;;;;;5.13;4.50;;;21.30;60.80;;;;;;1083192;46;20099;-72
2021/10/20 11:37:01;;;;;;;4.22;3.78;;;21.20;60.90;;;;;;1082637;47;20046;-74
2021/10/20 11:38:45;;;;;;;4.53;4.00;;;21.30;61.10;;;;;;1083719;46;20034;-74
2021/10/20 11:40:54;;;;;;;4.57;3.78;;;21.30;61.40;;;;;;1083146;39;20541;-73
2021/10/20 11:42:40;;;;;;;5.00;4.28;;;21.30;61.50;;;;;;1082668;47;20498;-71
2021/10/20 11:44:27;;;;;;;4.65;4.07;;;21.40;61.30;;;;;;1082330;47;20046;-72
2021/10/20 11:46:09;;;;;;;4.90;4.10;;;21.40;61.20;;;;;;1082344;46;20034;-73
2021/10/20 11:47:52;;;;;;;4.60;4.20;;;21.40;61.10;;;;;;1081561;47;20034;-72
2021/10/20 11:49:35;;;;;;;4.43;3.72;;;21.40;61.10;;;;;;1082021;46;20034;-73
2021/10/20 11:51:16;;;;;;;4.78;3.78;;;21.40;61.10;;;;;;1082449;47;20062;-73
2021/10/20 11:52:59;;;;;;;4.38;3.95;;;21.40;61.00;;;;;;1081470;39;20354;-74
2021/10/20 11:54:41;;;;;;;5.40;4.05;;;21.40;61.10;;;;;;1082281;46;20471;-75
2021/10/20 11:56:23;;;;;;;5.97;4.00;;;21.40;61.30;;;;;;1081643;47;20619;-75
2021/10/20 11:58:04;;;;;;;6.35;4.57;;;21.40;61.30;;;;;;1082471;46;20073;-74
2021/10/20 11:59:48;;;;;;;4.65;4.05;;;21.40;61.20;;;;;;1082491;46;20081;-74
2021/10/20 12:01:29;;;;;;;4.20;3.80;;;21.50;61.30;;;;;;1081982;46;20035;-74
2021/10/20 12:03:10;;;;;;;5.80;3.92;;;21.50;61.10;;;;;;1081664;47;20052;-72
2021/10/20 12:04:56;;;;;;;4.70;4.22;;;21.50;61.10;;;;;;1081969;46;20034;-73
2021/10/20 12:06:38;;;;;;;5.82;4.40;;;21.50;60.90;;;;;;1081690;46;20034;-71
2021/10/20 12:08:19;;;;;;;4.47;3.88;;;21.50;60.70;;;;;;1082250;46;20501;-74
2021/10/20 12:10:04;;;;;;;6.55;4.65;;;21.50;60.50;;;;;;1082177;46;20062;-71
2021/10/20 12:11:47;;;;;;;5.97;4.35;;;21.50;60.40;;;;;;1082124;47;20041;-72
2021/10/20 12:13:28;;;;;;;5.13;4.63;;;21.50;60.30;;;;;;1081926;47;20083;-72
2021/10/20 12:15:16;;;;;;;3.88;3.45;;;21.50;60.20;;;;;;1082131;46;20078;-72
2021/10/20 12:17:00;;;;;;;4.05;3.40;;;21.40;60.30;;;;;;1082268;46;20042;-72
2021/10/20 12:18:43;;;;;;;4.07;3.78;;;21.40;60.50;;;;;;1082569;46;20041;-72
2021/10/20 12:20:29;;;;;;;3.83;3.50;;;21.30;60.50;;;;;;1082052;47;20149;-69
2021/10/20 12:22:13;;;;;;;4.70;3.97;;;21.30;60.60;;;;;;1081314;46;20039;-71
2021/10/20 12:23:59;;;;;;;7.53;4.93;;;21.30;60.90;;;;;;1082196;46;20039;-71
2021/10/20 12:25:41;;;;;;;5.40;4.00;;;21.30;60.90;;;;;;1082407;47;20058;-71
2021/10/20 12:27:24;;;;;;;6.65;4.22;;;21.30;61.00;;;;;;1082024;47;20533;-72
2021/10/20 12:29:07;;;;;;;4.55;4.15;;;21.20;61.10;;;;;;1082785;46;20046;-72
2021/10/20 12:30:49;;;;;;;4.75;4.35;;;21.20;61.30;;;;;;1082255;46;20034;-70
2021/10/20 12:32:34;;;;;;;5.32;4.22;;;21.10;61.40;;;;;;1082232;46;20088;-74
2021/10/20 12:34:15;;;;;;;4.75;4.13;;;21.10;61.80;;;;;;1082389;47;20041;-74
2021/10/20 12:35:57;;;;;;;5.60;4.20;;;21.10;62.00;;;;;;1082701;47;20034;-77
2021/10/20 12:37:43;;;;;;;4.50;4.10;;;21.10;62.00;;;;;;1082262;47;20058;-72
2021/10/20 12:39:27;;;;;;;6.20;4.80;;;21.00;62.20;;;;;;1082081;47;20034;-75
2021/10/20 12:41:10;;;;;;;5.40;4.47;;;21.00;62.40;;;;;;1082912;47;20038;-72
2021/10/20 12:42:57;;;;;;;5.88;4.60;;;21.10;62.50;;;;;;1082756;31;20172;-74
2021/10/20 12:44:38;;;;;;;5.18;4.68;;;20.90;62.70;;;;;;1083553;47;20419;-73
2021/10/20 12:46:21;;;;;;;5.20;4.40;;;21.00;63.10;;;;;;1082424;54;20174;-72
2021/10/20 12:48:08;;;;;;;7.20;4.50;;;21.00;63.80;;;;;;1081963;46;20129;-72
2021/10/20 12:49:53;;;;;;;5.07;4.57;;;21.00;63.30;;;;;;1083044;46;20042;-74
2021/10/20 12:51:37;;;;;;;5.68;4.43;;;21.00;63.30;;;;;;1083105;46;20089;-75
2021/10/20 12:53:18;;;;;;;4.75;3.88;;;21.00;63.50;;;;;;1082618;46;20058;-71
2021/10/20 12:55:00;;;;;;;4.63;4.22;;;21.00;63.40;;;;;;1082709;46;20078;-74
2021/10/20 12:56:42;;;;;;;4.47;4.07;;;21.00;63.60;;;;;;1083308;54;20034;-71
2021/10/20 12:58:23;;;;;;;4.35;3.95;;;21.00;63.50;;;;;;1083270;47;20041;-77
2021/10/20 13:00:09;;;;;;;5.47;4.97;;;21.00;63.50;;;;;;1082933;47;20628;-72
2021/10/20 13:01:50;;;;;;;4.95;4.45;;;21.00;63.50;;;;;;1082683;47;20062;-72
2021/10/20 13:03:33;;;;;;;5.35;4.43;;;21.10;63.40;;;;;;1082973;47;20041;-72
2021/10/20 13:05:15;;;;;;;4.70;3.75;;;21.10;63.40;;;;;;1083163;46;20034;-74
2021/10/20 13:06:57;;;;;;;5.10;4.30;;;21.10;63.40;;;;;;1082777;39;20505;-70
2021/10/20 13:08:39;;;;;;;5.05;4.32;;;21.10;63.50;;;;;;1082942;47;20045;-74
2021/10/20 13:10:21;;;;;;;5.55;4.20;;;21.20;63.50;;;;;;1082679;47;20034;-72
2021/10/20 13:12:02;;;;;;;4.53;4.13;;;21.10;63.50;;;;;;1082158;46;20051;-69
2021/10/20 13:13:43;;;;;;;4.82;4.35;;;21.10;63.50;;;;;;1082059;47;20034;-71
2021/10/20 13:15:25;;;;;;;4.40;4.10;;;21.10;63.30;;;;;;1081989;46;20573;-70
2021/10/20 13:17:07;;;;;;;6.50;4.47;;;21.20;63.30;;;;;;1081525;46;20045;-72
2021/10/20 13:18:48;;;;;;;5.13;4.63;;;21.10;63.20;;;;;;1081944;47;20041;-69
2021/10/20 13:20:29;;;;;;;11.07;4.65;;;21.10;63.20;;;;;;1082495;46;20042;-72
2021/10/20 13:22:11;;;;;;;4.57;4.18;;;21.10;63.30;;;;;;1082124;47;20034;-70
2021/10/20 13:23:52;;;;;;;4.78;4.32;;;21.10;63.30;;;;;;1081908;47;20038;-73
2021/10/20 13:25:35;;;;;;;4.50;4.10;;;21.10;63.30;;;;;;1082648;47;20059;-68
2021/10/20 13:27:16;;;;;;;4.10;3.70;;;21.10;63.30;;;;;;1082296;47;20041;-74
2021/10/20 13:28:57;;;;;;;5.60;5.10;;;21.10;63.40;;;;;;1082388;47;20034;-71
2021/10/20 13:30:40;;;;;;;4.60;4.20;;;21.10;63.50;;;;;;1082449;47;20034;-74
2021/10/20 13:32:22;;;;;;;4.82;4.43;;;21.10;63.60;;;;;;1082017;47;20057;-72
2021/10/20 13:34:03;;;;;;;5.30;4.15;;;21.10;63.60;;;;;;1081755;47;20577;-73
2021/10/20 13:35:44;;;;;;;4.85;4.38;;;21.20;63.70;;;;;;1082346;47;20069;-72
2021/10/20 13:37:28;;;;;;;5.97;4.20;;;21.10;63.60;;;;;;1081716;47;20034;-70
2021/10/20 13:39:10;;;;;;;4.57;4.18;;;21.10;63.60;;;;;;1081950;47;20034;-72
2021/10/20 13:40:53;;;;;;;5.30;3.90;;;21.20;63.60;;;;;;1082464;39;20417;-72
2021/10/20 13:42:34;;;;;;;4.70;3.53;;;21.10;63.50;;;;;;1083037;47;20082;-75
2021/10/20 13:44:15;;;;;;;5.68;3.67;;;21.10;63.60;;;;;;1083212;39;20372;-70
2021/10/20 13:45:56;;;;;;;5.75;3.95;;;21.10;63.50;;;;;;1082509;47;20062;-72
2021/10/20 13:47:38;;;;;;;4.78;3.95;;;21.10;63.60;;;;;;1083158;47;20134;-72
2021/10/20 13:49:19;;;;;;;4.20;3.83;;;21.10;63.50;;;;;;1082665;47;20085;-70
2021/10/20 13:51:01;;;;;;;6.10;4.45;;;21.10;63.60;;;;;;1082912;39;20400;-69
2021/10/20 13:52:43;;;;;;;5.32;4.07;;;21.10;63.50;;;;;;1082237;46;20062;-71
2021/10/20 13:54:29;;;;;;;4.32;3.92;;;21.10;63.50;;;;;;1082539;46;20038;-70
2021/10/20 13:56:10;;;;;;;4.40;4.00;;;21.10;63.50;;;;;;1082799;46;20035;-68
2021/10/20 13:57:51;;;;;;;5.40;4.50;;;21.10;63.50;;;;;;1082409;47;20046;-69
2021/10/20 13:59:33;;;;;;;4.68;4.15;;;21.10;63.60;;;;;;1082911;46;20046;-70
2021/10/20 14:01:15;;;;;;;5.60;4.47;;;21.10;63.60;;;;;;1082798;54;20068;-74
2021/10/20 14:02:56;;;;;;;4.22;3.85;;;21.10;63.60;;;;;;1082659;46;20064;-71
2021/10/20 14:04:38;;;;;;;4.13;3.72;;;21.10;63.80;;;;;;1082961;31;20586;-72
2021/10/20 14:06:20;;;;;;;4.53;4.18;;;21.00;63.70;;;;;;1082709;46;20046;-69
2021/10/20 14:08:01;;;;;;;4.40;4.00;;;21.00;63.80;;;;;;1082046;46;20049;-69
2021/10/20 14:09:42;;;;;;;4.13;3.75;;;21.10;63.90;;;;;;1083063;39;20392;-69
2021/10/20 14:11:25;;;;;;;4.05;3.72;;;21.00;63.90;;;;;;1082345;46;20042;-70
2021/10/20 14:13:07;;;;;;;4.47;3.95;;;21.10;64.00;;;;;;1082096;46;20042;-70
2021/10/20 14:14:49;;;;;;;4.72;3.47;;;21.00;63.90;;;;;;1082816;46;20035;-72
2021/10/20 14:16:31;;;;;;;5.05;4.25;;;21.10;64.00;;;;;;1082024;46;20034;-74
2021/10/20 14:18:14;;;;;;;5.25;4.00;;;21.10;64.00;;;;;;1082925;39;20393;-69
2021/10/20 14:19:55;;;;;;;3.38;3.08;;;21.10;64.10;;;;;;1082132;46;20035;-70
2021/10/20 14:21:37;;;;;;;4.00;3.60;;;21.00;64.00;;;;;;1082466;46;20509;-70
2021/10/20 14:23:18;;;;;;;5.28;4.78;;;21.00;63.90;;;;;;1081601;46;20034;-72
2021/10/20 14:25:01;;;;;;;4.30;3.90;;;21.10;64.00;;;;;;1082377;47;20395;-69
2021/10/20 14:26:42;;;;;;;6.25;3.95;;;21.00;63.90;;;;;;1083075;46;20046;-73
2021/10/20 14:28:23;;;;;;;4.40;4.00;;;21.00;64.00;;;;;;1082399;47;20041;-72
2021/10/20 14:30:06;;;;;;;4.80;3.97;;;21.10;64.10;;;;;;1082669;46;20042;-70
2021/10/20 14:31:52;;;;;;;4.47;4.07;;;21.10;64.10;;;;;;1082724;46;20031;-74
2021/10/20 14:33:33;;;;;;;4.18;3.60;;;21.10;64.00;;;;;;1081777;47;20041;-69
2021/10/20 14:35:15;;;;;;;5.65;3.72;;;21.00;64.00;;;;;;1082675;46;20030;-72
2021/10/20 14:36:56;;;;;;;4.05;3.65;;;21.00;64.10;;;;;;1082502;39;20444;-71
2021/10/20 14:38:37;;;;;;;4.32;3.92;;;21.00;64.00;;;;;;1082821;46;20497;-70
2021/10/20 14:40:19;;;;;;;4.30;3.83;;;21.00;64.10;;;;;;1082402;47;20058;-71
2021/10/20 14:42:02;;;;;;;3.97;3.67;;;21.00;64.20;;;;;;1082555;46;20130;-70
2021/10/20 14:43:45;;;;;;;5.80;4.38;;;20.90;64.20;;;;;;1083082;47;20034;-71
2021/10/20 14:45:26;;;;;;;4.95;4.10;;;21.00;64.30;;;;;;1082756;47;20041;-71
2021/10/20 14:47:07;;;;;;;4.40;4.00;;;21.00;64.30;;;;;;1082793;46;20034;-71
2021/10/20 14:48:52;;;;;;;6.13;4.60;;;21.00;64.50;;;;;;1083706;39;20153;-72
2021/10/20 14:50:33;;;;;;;3.85;3.55;;;21.00;64.50;;;;;;1083286;46;20042;-69
2021/10/20 14:52:15;;;;;;;4.28;3.88;;;20.90;64.40;;;;;;1083584;47;20600;-70
2021/10/20 14:53:56;;;;;;;5.28;4.25;;;20.90;64.50;;;;;;1082806;46;20041;-70
2021/10/20 14:55:37;;;;;;;6.38;4.40;;;20.90;64.60;;;;;;1082389;47;20521;-69
2021/10/20 14:57:18;;;;;;;4.03;3.70;;;20.90;64.70;;;;;;1083042;46;20429;-70
2021/10/20 14:59:00;;;;;;;5.07;4.47;;;20.90;64.60;;;;;;1082698;47;20038;-73
2021/10/20 15:00:42;;;;;;;5.90;5.03;;;20.90;64.80;;;;;;1081918;46;20104;-71
2021/10/20 15:02:23;;;;;;;4.40;4.00;;;20.90;65.00;;;;;;1082637;46;20038;-71
2021/10/20 15:04:07;;;;;;;4.32;3.65;;;20.90;64.90;;;;;;1082593;47;20035;-73
2021/10/20 15:05:48;;;;;;;4.90;4.50;;;20.90;64.90;;;;;;1082228;47;20034;-70
2021/10/20 15:07:29;;;;;;;4.57;3.78;;;20.90;65.00;;;;;;1082238;46;20517;-70
2021/10/20 15:09:10;;;;;;;6.22;4.40;;;20.90;65.00;;;;;;1082535;46;20052;-69
2021/10/20 15:10:55;;;;;;;4.90;4.20;;;20.80;65.00;;;;;;1082639;46;20035;-72
2021/10/20 15:12:36;;;;;;;4.28;3.88;;;20.80;65.00;;;;;;1082312;46;20026;-69
2021/10/20 15:14:17;;;;;;;4.60;4.20;;;20.80;65.00;;;;;;1082209;46;20041;-69
2021/10/20 15:15:59;;;;;;;4.88;4.13;;;20.80;65.20;;;;;;1082587;46;20035;-69
2021/10/20 15:17:41;;;;;;;4.88;4.38;;;20.80;65.10;;;;;;1082280;47;20493;-69
2021/10/20 15:19:26;;;;;;;4.30;3.90;;;20.80;65.30;;;;;;1082304;46;20042;-70
2021/10/20 15:21:07;;;;;;;4.53;3.80;;;20.80;65.30;;;;;;1082598;46;20034;-69
2021/10/20 15:22:49;;;;;;;3.58;3.28;;;20.80;65.30;;;;;;1081934;46;20134;-69
2021/10/20 15:24:30;;;;;;;5.65;3.63;;;20.80;65.30;;;;;;1082193;47;20038;-69
2021/10/20 15:26:13;;;;;;;4.35;3.85;;;20.80;65.30;;;;;;1082139;47;20531;-71
2021/10/20 15:27:54;;;;;;;4.18;3.78;;;20.70;65.30;;;;;;1082814;46;20103;-72
2021/10/20 15:29:36;;;;;;;5.35;3.80;;;20.70;65.30;;;;;;1082120;46;20121;-69
2021/10/20 15:31:20;;;;;;;4.63;3.45;;;20.70;65.20;;;;;;1082697;46;20069;-71
2021/10/20 15:33:02;;;;;;;4.78;4.03;;;20.70;65.40;;;;;;1081769;46;20042;-69
2021/10/20 15:34:45;;;;;;;4.00;3.60;;;20.70;65.30;;;;;;1082443;39;20370;-71
2021/10/20 15:36:26;;;;;;;3.35;3.03;;;20.70;65.40;;;;;;1082576;39;20413;-68
2021/10/20 15:38:08;;;;;;;4.45;3.28;;;20.70;65.30;;;;;;1082313;46;20042;-68
2021/10/20 15:39:49;;;;;;;5.63;3.50;;;20.70;65.30;;;;;;1082022;46;20094;-69
2021/10/20 15:41:31;;;;;;;3.95;3.50;;;20.70;65.40;;;;;;1083382;46;20038;-70
2021/10/20 15:43:13;;;;;;;3.80;3.50;;;20.70;65.40;;;;;;1082904;47;20034;-69
2021/10/20 15:44:54;;;;;;;4.60;3.83;;;20.70;65.40;;;;;;1083150;39;20280;-69
2021/10/20 15:46:35;;;;;;;3.55;3.25;;;20.60;65.30;;;;;;1082911;46;20071;-70
2021/10/20 15:48:16;;;;;;;3.50;3.20;;;20.60;65.30;;;;;;1082872;46;20049;-70
2021/10/20 15:49:58;;;;;;;4.47;3.47;;;20.60;65.40;;;;;;1082598;54;20118;-70
2021/10/20 15:51:42;;;;;;;3.75;3.40;;;20.60;65.40;;;;;;1082557;46;20042;-72
2021/10/20 15:53:25;;;;;;;4.10;3.15;;;20.60;65.50;;;;;;1082979;46;20041;-70
2021/10/20 15:55:07;;;;;;;4.05;3.42;;;20.60;65.40;;;;;;1082384;47;20049;-69
2021/10/20 15:56:48;;;;;;;4.00;3.47;;;20.60;65.50;;;;;;1082318;47;20031;-71
2021/10/20 15:58:30;;;;;;;3.47;3.17;;;20.60;65.40;;;;;;1082505;46;20069;-71
2021/10/20 16:00:12;;;;;;;3.97;3.03;;;20.60;65.40;;;;;;1082120;47;20041;-70
2021/10/20 16:01:53;;;;;;;3.65;3.22;;;20.60;65.50;;;;;;1082468;47;20130;-69
2021/10/20 16:03:37;;;;;;;3.63;3.28;;;20.50;65.40;;;;;;1081734;46;20058;-73
2021/10/20 16:05:18;;;;;;;3.30;2.97;;;20.60;65.50;;;;;;1082405;39;20381;-71
2021/10/20 16:07:00;;;;;;;3.22;2.90;;;20.50;65.50;;;;;;1082293;46;20039;-70
2021/10/20 16:08:41;;;;;;;3.72;3.42;;;20.50;65.50;;;;;;1081879;47;20035;-69
2021/10/20 16:10:22;;;;;;;4.70;3.33;;;20.50;65.40;;;;;;1082357;39;20418;-69
2021/10/20 16:12:06;;;;;;;7.90;6.57;;;20.50;65.50;;;;;;1082066;46;20039;-71
2021/10/20 16:13:47;;;;;;;4.38;3.97;;;20.50;65.50;;;;;;1081818;47;20034;-72
2021/10/20 16:15:30;;;;;;;4.13;3.53;;;20.50;65.50;;;;;;1081180;47;20035;-71
2021/10/20 16:17:12;;;;;;;4.68;3.42;;;20.50;65.50;;;;;;1082344;39;20292;-70
2021/10/20 16:18:54;;;;;;;3.67;3.38;;;20.50;65.50;;;;;;1082259;46;20041;-71
2021/10/20 16:20:36;;;;;;;3.50;3.20;;;20.50;65.50;;;;;;1082395;39;20444;-72
2021/10/20 16:22:17;;;;;;;4.18;2.90;;;20.50;65.50;;;;;;1081413;47;20151;-72
2021/10/20 16:23:59;;;;;;;3.38;3.08;;;20.50;65.50;;;;;;1082265;46;20038;-71
2021/10/20 16:25:40;;;;;;;3.17;2.67;;;20.50;65.50;;;;;;1081912;46;20034;-70
2021/10/20 16:27:22;;;;;;;4.07;3.30;;;20.40;65.50;;;;;;1081828;47;20501;-69
2021/10/20 16:29:04;;;;;;;4.18;3.50;;;20.50;65.50;;;;;;1082061;46;20078;-70
2021/10/20 16:30:45;;;;;;;4.53;3.50;;;20.40;65.60;;;;;;1082227;46;20030;-72
2021/10/20 16:32:27;;;;;;;3.38;3.08;;;20.40;65.60;;;;;;1082480;46;20046;-73
2021/10/20 16:34:08;;;;;;;3.63;3.30;;;20.40;65.60;;;;;;1081996;54;20034;-72
2021/10/20 16:35:50;;;;;;;3.47;3.17;;;20.40;65.60;;;;;;1082439;39;20402;-71
2021/10/20 16:37:35;;;;;;;4.05;3.65;;;20.40;65.60;;;;;;1082611;47;20042;-71
2021/10/20 16:39:17;;;;;;;4.15;3.75;;;20.40;65.70;;;;;;1081944;47;20034;-71
2021/10/20 16:40:58;;;;;;;4.43;3.08;;;20.40;65.70;;;;;;1082458;46;20057;-71
2021/10/20 16:42:41;;;;;;;4.45;3.10;;;20.40;65.60;;;;;;1082341;47;20078;-69
2021/10/20 16:44:22;;;;;;;4.30;3.33;;;20.40;65.70;;;;;;1082447;46;20034;-70
2021/10/20 16:46:04;;;;;;;3.75;3.33;;;20.40;65.70;;;;;;1082742;46;20034;-69
2021/10/20 16:47:45;;;;;;;3.83;3.20;;;20.40;65.60;;;;;;1082376;46;20041;-71
2021/10/20 16:49:26;;;;;;;3.65;3.08;;;20.40;65.70;;;;;;1082612;46;20034;-70
2021/10/20 16:51:08;;;;;;;3.35;3.05;;;20.40;65.70;;;;;;1082797;46;20145;-70
2021/10/20 16:52:49;;;;;;;3.10;2.90;;;20.40;65.80;;;;;;1082313;46;20035;-69
2021/10/20 16:54:31;;;;;;;3.47;2.80;;;20.40;65.60;;;;;;1082478;47;20058;-70
2021/10/20 16:56:12;;;;;;;3.95;3.22;;;20.40;65.70;;;;;;1082491;47;20035;-72
2021/10/20 16:57:54;;;;;;;3.08;2.88;;;20.40;65.60;;;;;;1082110;47;20168;-69
2021/10/20 16:59:35;;;;;;;3.25;2.90;;;20.40;65.60;;;;;;1081977;46;20042;-71
2021/10/20 17:01:16;;;;;;;4.57;3.22;;;20.40;65.70;;;;;;1081781;46;20576;-70
2021/10/20 17:02:58;;;;;;;3.00;2.72;;;20.30;65.70;;;;;;1081710;47;20489;-69
2021/10/20 17:04:39;;;;;;;3.63;3.25;;;20.40;65.80;;;;;;1082300;47;20065;-70
2021/10/20 17:06:20;;;;;;;3.75;3.20;;;20.40;65.80;;;;;;1082080;46;20031;-70
2021/10/20 17:08:02;;;;;;;3.25;2.95;;;20.30;65.60;;;;;;1082167;47;20034;-72
2021/10/20 17:09:43;;;;;;;3.70;2.92;;;20.40;65.60;;;;;;1081961;47;20034;-69
2021/10/20 17:11:25;;;;;;;3.45;2.70;;;20.40;65.60;;;;;;1082262;47;20027;-71
2021/10/20 17:13:06;;;;;;;3.38;2.90;;;20.30;65.60;;;;;;1082133;39;20393;-71
2021/10/20 17:14:47;;;;;;;3.90;3.30;;;20.30;65.60;;;;;;1081941;47;20034;-70
2021/10/20 17:16:30;;;;;;;3.42;2.88;;;20.40;65.70;;;;;;1082210;46;20034;-70
2021/10/20 17:18:11;;;;;;;3.28;2.97;;;20.40;65.70;;;;;;1082217;47;20042;-70
2021/10/20 17:19:52;;;;;;;3.72;3.13;;;20.40;65.60;;;;;;1082402;47;20042;-71
2021/10/20 17:21:33;;;;;;;3.60;2.67;;;20.40;65.70;;;;;;1082651;47;20099;-71
2021/10/20 17:23:16;;;;;;;6.68;2.88;;;20.30;65.60;;;;;;1082756;47;20034;-71
2021/10/20 17:24:57;;;;;;;2.92;2.65;;;20.40;65.70;;;;;;1082593;47;20696;-72
2021/10/20 17:26:40;;;;;;;4.40;3.33;;;20.40;65.60;;;;;;1082421;47;20038;-70
2021/10/20 17:28:21;;;;;;;3.92;3.10;;;20.40;65.60;;;;;;1082165;47;20044;-71
2021/10/20 17:30:08;;;;;;;5.88;3.13;;;20.40;65.60;;;;;;1082158;47;20141;-68
2021/10/20 17:31:50;;;;;;;5.97;3.08;;;20.40;65.60;;;;;;1082217;47;20041;-72
2021/10/20 17:33:31;;;;;;;2.90;2.60;;;20.40;65.60;;;;;;1083085;47;20040;-70
2021/10/20 17:35:14;;;;;;;4.53;3.00;;;20.40;65.60;;;;;;1082460;47;20035;-73
2021/10/20 17:36:56;;;;;;;4.35;2.70;;;20.40;65.50;;;;;;1081943;47;20724;-70
2021/10/20 17:38:37;;;;;;;3.63;2.95;;;20.40;65.50;;;;;;1081876;47;20038;-70
2021/10/20 17:40:21;;;;;;;3.42;2.80;;;20.40;65.50;;;;;;1082645;47;20237;-72
2021/10/20 17:42:03;;;;;;;3.63;3.03;;;20.40;65.50;;;;;;1082518;47;20041;-72
2021/10/20 17:43:45;;;;;;;4.47;3.42;;;20.40;66.20;;;;;;1082347;47;20517;-71
2021/10/20 17:45:26;;;;;;;5.15;3.15;;;20.40;65.40;;;;;;1082728;47;20042;-71
2021/10/20 17:47:07;;;;;;;2.80;2.60;;;20.40;65.40;;;;;;1082772;47;20046;-71
2021/10/20 17:48:48;;;;;;;3.60;2.55;;;20.40;65.40;;;;;;1082602;47;20162;-70
2021/10/20 17:50:30;;;;;;;2.75;2.55;;;20.40;65.40;;;;;;1082095;47;20063;-69
2021/10/20 17:52:11;;;;;;;3.10;2.70;;;20.40;65.40;;;;;;1082323;47;20046;-70
2021/10/20 17:53:53;;;;;;;3.85;2.90;;;20.40;65.40;;;;;;1082567;47;20042;-69
2021/10/20 17:55:34;;;;;;;3.83;2.80;;;20.40;65.40;;;;;;1081864;47;20037;-69
2021/10/20 17:57:18;;;;;;;5.00;3.13;;;20.40;66.20;;;;;;1082114;47;20038;-72
2021/10/20 17:58:59;;;;;;;3.78;2.83;;;20.40;65.50;;;;;;1081627;47;20088;-71
2021/10/20 18:00:40;;;;;;;4.15;2.85;;;20.40;65.50;;;;;;1082605;47;20042;-71
2021/10/20 18:02:22;;;;;;;3.03;2.65;;;20.40;65.70;;;;;;1082648;47;20034;-69
2021/10/20 18:04:04;;;;;;;4.32;3.35;;;20.40;65.50;;;;;;1082210;47;20034;-71
2021/10/20 18:05:45;;;;;;;3.53;3.00;;;20.40;65.60;;;;;;1082361;47;20046;-69
2021/10/20 18:07:26;;;;;;;4.43;3.58;;;20.40;65.50;;;;;;1082317;39;20418;-68
2021/10/20 18:09:08;;;;;;;4.10;2.60;;;20.40;65.60;;;;;;1082084;47;20038;-71
2021/10/20 18:10:51;;;;;;;4.05;3.65;;;20.40;65.60;;;;;;1081993;47;20079;-70
2021/10/20 18:12:33;;;;;;;4.30;3.00;;;20.40;65.50;;;;;;1082110;47;20034;-70
2021/10/20 18:14:14;;;;;;;6.50;3.13;;;20.40;65.50;;;;;;1081680;47;20189;-73
2021/10/20 18:15:56;;;;;;;4.57;2.97;;;20.50;65.60;;;;;;1081835;47;20065;-71
2021/10/20 18:17:38;;;;;;;4.07;2.90;;;20.40;65.40;;;;;;1082024;47;20046;-70
2021/10/20 18:19:20;;;;;;;5.03;3.08;;;20.40;65.40;;;;;;1082435;39;20471;-71
2021/10/20 18:21:02;;;;;;;4.75;3.00;;;20.40;65.50;;;;;;1081836;54;20034;-70
2021/10/20 18:22:45;;;;;;;3.72;2.70;;;20.40;65.50;;;;;;1081811;47;20039;-72
2021/10/20 18:24:26;;;;;;;4.38;2.80;;;20.50;65.60;;;;;;1082387;39;20399;-71
2021/10/20 18:26:07;;;;;;;5.28;3.10;;;20.40;65.60;;;;;;1082534;47;20041;-71
2021/10/20 18:27:55;;;;;;;6.35;3.33;;;20.40;65.60;;;;;;1082007;47;20103;-70
2021/10/20 18:29:37;;;;;;;3.08;2.78;;;20.40;65.60;;;;;;1082224;47;20038;-71
2021/10/20 18:31:18;;;;;;;4.28;3.28;;;20.50;65.60;;;;;;1082093;47;20041;-72
2021/10/20 18:33:03;;;;;;;3.33;3.03;;;20.40;65.50;;;;;;1082171;47;20041;-70
2021/10/20 18:34:48;;;;;;;4.47;3.25;;;20.40;65.50;;;;;;1082066;54;20090;-71
2021/10/20 18:36:29;;;;;;;4.40;3.35;;;20.40;65.60;;;;;;1082141;47;20041;-70
2021/10/20 18:38:11;;;;;;;5.53;3.17;;;20.50;65.50;;;;;;1082611;47;20493;-70
2021/10/20 18:39:52;;;;;;;3.53;2.80;;;20.40;65.50;;;;;;1083339;39;20433;-69
2021/10/20 18:41:34;;;;;;;3.85;3.15;;;20.50;65.60;;;;;;1082695;46;20039;-71
2021/10/20 18:43:16;;;;;;;4.75;3.45;;;20.40;65.60;;;;;;1082173;46;20035;-73
2021/10/20 18:44:57;;;;;;;4.53;3.20;;;20.40;65.60;;;;;;1082382;46;20035;-70
2021/10/20 18:46:40;;;;;;;5.03;3.10;;;20.40;65.60;;;;;;1082514;46;20058;-71
2021/10/20 18:48:22;;;;;;;4.95;2.92;;;20.40;65.60;;;;;;1082705;46;20101;-73
2021/10/20 18:50:05;;;;;;;4.82;2.92;;;20.40;65.60;;;;;;1082116;46;20078;-69
2021/10/20 18:51:47;;;;;;;3.63;2.65;;;20.40;65.60;;;;;;1081823;47;20041;-69
2021/10/20 18:53:28;;;;;;;3.47;2.67;;;20.40;65.60;;;;;;1082518;46;20034;-69
2021/10/20 18:55:10;;;;;;;3.20;2.90;;;20.40;65.60;;;;;;1083240;46;20035;-70
2021/10/20 18:56:53;;;;;;;4.30;3.47;;;20.40;65.70;;;;;;1082819;46;20038;-70
2021/10/20 18:58:34;;;;;;;3.95;3.10;;;20.40;65.60;;;;;;1082985;46;20477;-71
2021/10/20 19:00:17;;;;;;;3.78;3.42;;;20.40;65.70;;;;;;1083566;46;20057;-72
2021/10/20 19:01:58;;;;;;;4.63;3.28;;;20.40;65.70;;;;;;1082784;47;20912;-69
2021/10/20 19:03:39;;;;;;;5.82;3.47;;;20.40;65.60;;;;;;1082637;47;20042;-70
2021/10/20 19:05:20;;;;;;;5.28;3.50;;;20.40;65.60;;;;;;1083362;31;20587;-68
2021/10/20 19:07:02;;;;;;;4.13;2.95;;;20.40;65.60;;;;;;1082418;46;20061;-70